KELD/ELD METAR and TAF weather

Enter ICAO airport designator
Station Type Date Time Source
KELD METAR 2020/12/05 05:53 UTC NOAA

KELD 050553Z AUTO 00000KT 9SM CLR 00/M01 A3023 RMK AO2 SLP239 I6000 T00001011 10039 20000 401000000 53004


Station Type Date Time Source
KELD Decoded METAR 2020/12/05 05:53 UTC NOAA

SOUTH ARKANSAS REGIONAL, AR, United States (KELD) 33-13N 092-49W 81M
Dec 05, 2020 - 12:53 AM EST / 2020.12.05 0553 UTC
Wind: Calm:0
Visibility: 9 mile(s):0
Sky conditions: clear
Temperature: 32.0 F (0.0 C)
Dew Point: 30.0 F (-1.1 C)
Relative Humidity: 92%
Pressure (altimeter): 30.23 in. Hg (1023 hPa)
Pressure tendency: 0.01 inches (0.4 hPa) higher than three hours ago
ob: KELD 050553Z AUTO 00000KT 9SM CLR 00/M01 A3023 RMK AO2 SLP239 I6000 T00001011 10039 20000 401000000 53004
cycle: 6

Station Type Date Time Source
KELD TAF 2020/12/05 06:22 UTC NOAA

TAF KELD 050520Z 0506/0606 00000KT P6SM SKC
FM050900 00000KT 5SM BR SKC
TEMPO 0509/0513 1/4SM FG
FM051400 VRB03KT P6SM SCT250
FM060000 00000KT P6SM BKN250

Example: see airport list